createdAt,value
2022-09-25T10:54:18.297Z,2.20
2022-09-25T10:56:47.870Z,2.30
2022-09-25T10:59:20.231Z,2.03
2022-09-25T11:01:51.255Z,2.92
2022-09-25T11:04:24.769Z,2.40
2022-09-25T11:06:58.270Z,2.20
2022-09-25T11:09:30.054Z,2.60
2022-09-25T11:12:08.751Z,2.50
2022-09-25T11:14:37.867Z,3.10
2022-09-25T11:17:10.209Z,2.95
2022-09-25T11:19:40.016Z,2.72
2022-09-25T11:22:17.721Z,2.28
2022-09-25T11:25:00.870Z,2.45
2022-09-25T11:27:36.109Z,1.80
2022-09-25T11:30:08.010Z,1.60
2022-09-25T11:32:51.638Z,2.10
2022-09-25T11:35:34.720Z,2.28
2022-09-25T11:38:12.239Z,2.25
2022-09-25T11:41:08.224Z,2.40
2022-09-25T11:43:57.120Z,2.70
2022-09-25T11:46:34.012Z,2.00
2022-09-25T11:49:12.425Z,5.25
2022-09-25T11:52:18.897Z,3.53
2022-09-25T11:55:20.011Z,2.22
2022-09-25T11:58:01.055Z,2.88
2022-09-25T12:00:41.108Z,2.42
2022-09-25T12:03:35.383Z,3.15
2022-09-25T12:06:22.398Z,2.80
2022-09-25T12:09:07.119Z,3.05
2022-09-25T12:11:47.617Z,2.65
2022-09-25T12:14:28.121Z,2.80
2022-09-25T12:17:04.696Z,2.88
2022-09-25T12:19:42.552Z,3.08
2022-09-25T12:22:21.778Z,2.85
2022-09-25T12:25:01.472Z,3.38
2022-09-25T12:27:46.861Z,2.55
2022-09-25T12:30:21.402Z,3.80
2022-09-25T12:33:04.555Z,4.38
2022-09-25T12:35:44.288Z,3.05
2022-09-25T12:38:21.068Z,3.38
2022-09-25T12:40:55.655Z,2.75
2022-09-25T12:43:30.100Z,3.58
2022-09-25T12:46:08.762Z,4.15
2022-09-25T12:48:45.283Z,3.70
2022-09-25T12:51:19.035Z,3.20
2022-09-25T12:53:56.821Z,3.40
2022-09-25T12:56:30.278Z,5.32
2022-09-25T12:59:06.262Z,5.07
2022-09-25T13:01:46.714Z,4.30
2022-09-25T13:04:56.258Z,3.42
2022-09-25T13:07:30.263Z,3.28
2022-09-25T13:09:58.633Z,2.63
2022-09-25T13:12:34.785Z,2.65
2022-09-25T13:15:09.768Z,3.15
2022-09-25T13:17:40.539Z,2.63
2022-09-25T13:20:44.082Z,2.70
2022-09-25T13:23:16.500Z,2.72
2022-09-25T13:25:47.629Z,2.65
2022-09-25T13:28:23.052Z,1.95
2022-09-25T13:31:10.144Z,2.50
2022-09-25T13:33:47.999Z,2.55
2022-09-25T13:36:36.567Z,2.88
2022-09-25T13:39:25.416Z,3.03
2022-09-25T13:41:57.156Z,3.75
2022-09-25T13:45:06.414Z,4.88
2022-09-25T13:47:55.086Z,6.50
2022-09-25T13:50:34.194Z,3.53
2022-09-25T13:53:21.540Z,3.80
2022-09-25T13:56:18.727Z,4.50
2022-09-25T13:59:23.592Z,3.28
2022-09-25T14:01:55.485Z,3.05
2022-09-25T14:04:37.528Z,3.80
2022-09-25T14:07:21.328Z,2.83
2022-09-25T14:09:54.806Z,3.70
2022-09-25T14:12:42.346Z,2.97
2022-09-25T14:15:29.482Z,3.15
2022-09-25T14:18:01.004Z,3.65
2022-09-25T14:20:36.330Z,2.85
2022-09-25T14:23:15.077Z,3.20
2022-09-25T14:25:47.053Z,3.30
2022-09-25T14:28:20.707Z,3.33
2022-09-25T14:31:15.253Z,3.60
2022-09-25T14:33:58.738Z,3.97
2022-09-25T14:36:37.288Z,4.05
2022-09-25T14:39:25.797Z,3.75
2022-09-25T14:42:16.114Z,3.17
2022-09-25T14:45:15.113Z,2.95
2022-09-25T14:47:47.485Z,3.00
2022-09-25T14:50:21.396Z,3.10
2022-09-25T14:52:50.719Z,3.28
2022-09-25T14:55:23.054Z,3.60
2022-09-25T14:57:53.366Z,3.50
2022-09-25T15:00:24.743Z,3.00
2022-09-25T15:02:55.655Z,3.25
2022-09-25T15:05:33.073Z,3.78
2022-09-25T15:08:03.516Z,3.47
2022-09-25T15:10:36.120Z,3.65
2022-09-25T15:13:12.979Z,3.72
2022-09-25T15:16:01.958Z,4.68
2022-09-25T15:18:30.461Z,4.30
2022-09-25T15:20:59.223Z,4.90
2022-09-25T15:23:30.625Z,4.80
2022-09-25T15:26:04.093Z,4.07
2022-09-25T15:28:40.278Z,4.40
2022-09-25T15:31:09.168Z,4.93
2022-09-25T15:33:39.589Z,4.63
2022-09-25T15:36:17.797Z,5.07
2022-09-25T15:38:52.976Z,3.67
2022-09-25T15:41:23.887Z,3.67
2022-09-25T15:43:53.576Z,4.05
2022-09-25T15:46:40.032Z,4.25
2022-09-25T15:49:08.582Z,3.58
2022-09-25T15:51:38.340Z,3.17
2022-09-25T15:54:31.445Z,4.53
2022-09-25T15:57:03.134Z,3.42
2022-09-25T15:59:35.319Z,3.70
2022-09-25T16:02:39.228Z,3.88
2022-09-25T16:05:11.302Z,3.70
2022-09-25T16:07:40.122Z,4.03
2022-09-25T16:10:31.873Z,4.82
2022-09-25T16:13:02.054Z,3.97
2022-09-25T16:15:50.735Z,4.55
2022-09-25T16:18:40.660Z,5.25
2022-09-25T16:21:15.533Z,4.55
2022-09-25T16:23:44.584Z,4.07
2022-09-25T16:26:19.831Z,4.63
2022-09-25T16:29:01.719Z,4.28
2022-09-25T16:31:30.852Z,4.90
2022-09-25T16:34:01.172Z,4.45
2022-09-25T16:36:39.922Z,4.78
2022-09-25T16:39:25.022Z,4.32
2022-09-25T16:41:53.914Z,4.97
2022-09-25T16:44:37.608Z,4.85
2022-09-25T16:47:18.033Z,5.20
2022-09-25T16:49:46.727Z,5.22
2022-09-25T16:52:21.823Z,5.20
2022-09-25T16:54:57.075Z,5.13
2022-09-25T16:57:27.914Z,5.88
2022-09-25T16:59:57.886Z,4.90
2022-09-25T17:02:33.526Z,5.38
2022-09-25T17:05:04.100Z,5.57
2022-09-25T17:07:32.757Z,5.93
2022-09-25T17:10:01.704Z,5.43
2022-09-25T17:12:34.255Z,5.43
2022-09-25T17:15:04.082Z,6.30
2022-09-25T17:17:32.617Z,6.47
2022-09-25T17:20:00.963Z,6.78
2022-09-25T17:22:31.212Z,5.75
2022-09-25T17:25:03.145Z,5.95
2022-09-25T17:27:31.988Z,6.00
2022-09-25T17:30:01.400Z,5.75
2022-09-25T17:32:33.976Z,6.43
2022-09-25T17:35:02.418Z,5.53
2022-09-25T17:37:31.588Z,6.53
2022-09-25T17:40:00.097Z,5.18
2022-09-25T17:42:28.495Z,4.60
2022-09-25T17:44:57.650Z,4.38
2022-09-25T17:47:27.517Z,4.53
2022-09-25T17:49:57.652Z,4.32
2022-09-25T17:52:26.515Z,5.45
2022-09-25T17:54:54.913Z,4.85
2022-09-25T17:57:23.279Z,4.28
2022-09-25T17:59:52.207Z,4.35
2022-09-25T18:02:20.631Z,4.45
2022-09-25T18:04:49.099Z,4.22
2022-09-25T18:07:18.962Z,3.92
2022-09-25T18:09:47.277Z,4.45
2022-09-25T18:12:15.581Z,4.07
2022-09-25T18:14:45.803Z,4.63
2022-09-25T18:17:16.013Z,4.63
2022-09-25T18:20:02.115Z,4.22
2022-09-25T18:22:32.964Z,4.43
2022-09-25T18:25:01.340Z,4.55
2022-09-25T18:27:33.215Z,5.22
2022-09-25T18:30:01.765Z,4.60
2022-09-25T18:32:33.075Z,5.78
2022-09-25T18:35:03.054Z,6.20
2022-09-25T18:37:33.340Z,5.07
2022-09-25T18:40:01.970Z,5.13
2022-09-25T18:42:32.405Z,5.70
2022-09-25T18:45:00.921Z,5.45
2022-09-25T18:47:29.728Z,5.60
2022-09-25T18:49:58.307Z,5.22
2022-09-25T18:52:26.979Z,5.32
2022-09-25T18:54:56.875Z,5.97
2022-09-25T18:57:25.243Z,5.85
2022-09-25T18:59:54.016Z,4.72
2022-09-25T19:02:25.495Z,5.53
2022-09-25T19:04:56.104Z,5.60
2022-09-25T19:07:25.893Z,5.63
2022-09-25T19:09:55.157Z,5.60
2022-09-25T19:12:25.346Z,5.43
2022-09-25T19:14:53.965Z,5.53
2022-09-25T19:17:41.461Z,5.53
2022-09-25T19:20:11.518Z,6.25
2022-09-25T19:22:41.484Z,5.95
2022-09-25T19:25:10.782Z,6.78
2022-09-25T19:27:40.507Z,5.68
2022-09-25T19:30:09.986Z,6.22
2022-09-25T19:32:38.923Z,6.45
2022-09-25T19:35:08.179Z,7.13
2022-09-25T19:37:36.737Z,5.63
2022-09-25T19:40:23.303Z,7.30
2022-09-25T19:42:53.590Z,6.22
2022-09-25T19:45:22.314Z,6.38
2022-09-25T19:47:50.866Z,6.15
2022-09-25T19:50:19.314Z,6.25
2022-09-25T19:52:50.899Z,6.22
2022-09-25T19:55:19.891Z,5.82
2022-09-25T19:57:48.521Z,6.32
2022-09-25T20:00:18.869Z,6.25
2022-09-25T20:02:47.901Z,7.05
2022-09-25T20:05:17.274Z,6.80
2022-09-25T20:07:45.710Z,6.57
2022-09-25T20:10:14.203Z,6.80
2022-09-25T20:12:42.591Z,7.15
2022-09-25T20:15:11.729Z,8.75
2022-09-25T20:17:41.652Z,7.35
2022-09-25T20:20:10.157Z,6.78
2022-09-25T20:22:38.464Z,8.25
2022-09-25T20:25:07.723Z,6.72
2022-09-25T20:27:36.698Z,8.48
2022-09-25T20:30:05.907Z,7.03
2022-09-25T20:32:35.287Z,7.72
2022-09-25T20:35:05.378Z,7.03
2022-09-25T20:37:33.782Z,7.05
2022-09-25T20:40:02.551Z,7.45
2022-09-25T20:42:31.582Z,7.65
2022-09-25T20:44:59.914Z,7.18
2022-09-25T20:47:33.587Z,7.22
2022-09-25T20:50:02.364Z,7.28
2022-09-25T20:52:34.898Z,7.22
2022-09-25T20:55:03.262Z,6.38
2022-09-25T20:57:33.729Z,7.60
2022-09-25T21:00:03.491Z,7.93
2022-09-25T21:02:35.302Z,8.05
2022-09-25T21:05:03.716Z,7.57
2022-09-25T21:07:33.707Z,8.98
2022-09-25T21:10:02.160Z,7.18
2022-09-25T21:12:31.238Z,6.63
2022-09-25T21:14:59.614Z,6.15
2022-09-25T21:17:27.961Z,6.22
2022-09-25T21:19:56.353Z,6.38
2022-09-25T21:22:24.926Z,7.50
2022-09-25T21:24:55.038Z,6.85
2022-09-25T21:27:23.495Z,7.60
2022-09-25T21:29:52.235Z,7.25
2022-09-25T21:32:20.705Z,6.63
2022-09-25T21:34:49.058Z,6.10
2022-09-25T21:37:17.392Z,7.07
2022-09-25T21:39:46.400Z,7.00
2022-09-25T21:42:16.485Z,6.00
2022-09-25T21:44:46.184Z,6.65
2022-09-25T21:47:15.488Z,6.63
2022-09-25T21:49:44.166Z,6.05
2022-09-25T21:52:12.777Z,6.00
2022-09-25T21:54:41.121Z,5.45
2022-09-25T21:57:09.616Z,5.75
2022-09-25T21:59:40.545Z,5.63
2022-09-25T22:02:08.967Z,6.10
2022-09-25T22:04:37.437Z,5.85
2022-09-25T22:07:06.316Z,5.30
2022-09-25T22:09:35.159Z,6.82
2022-09-25T22:12:03.702Z,5.70
2022-09-25T22:14:32.182Z,5.97
2022-09-25T22:17:02.061Z,5.88
2022-09-25T22:19:31.636Z,6.05
2022-09-25T22:22:01.006Z,6.50
2022-09-25T22:24:29.488Z,5.90
2022-09-25T22:26:57.933Z,6.47
2022-09-25T22:29:26.695Z,6.72
2022-09-25T22:31:55.695Z,6.05
2022-09-25T22:34:27.057Z,6.35
2022-09-25T22:36:59.498Z,6.93
2022-09-25T22:39:29.803Z,7.50
2022-09-25T22:41:58.264Z,6.00
2022-09-25T22:44:27.386Z,6.03
2022-09-25T22:46:56.087Z,5.55
2022-09-25T22:49:26.026Z,6.10
2022-09-25T22:51:54.419Z,6.80
2022-09-25T22:54:22.853Z,5.90
2022-09-25T22:56:53.680Z,6.38
2022-09-25T22:59:22.109Z,6.13
2022-09-25T23:01:53.119Z,5.93
2022-09-25T23:04:23.640Z,6.57
2022-09-25T23:06:54.033Z,5.78
2022-09-25T23:09:25.069Z,6.30
2022-09-25T23:11:54.070Z,5.95
2022-09-25T23:14:25.103Z,5.90
2022-09-25T23:16:55.867Z,5.97
2022-09-25T23:19:24.740Z,6.05
2022-09-25T23:21:55.288Z,6.18
2022-09-25T23:24:25.457Z,6.55
2022-09-25T23:26:55.188Z,6.78
2022-09-25T23:29:23.963Z,6.57
2022-09-25T23:31:52.781Z,6.18
2022-09-25T23:34:21.283Z,6.15
2022-09-25T23:36:50.004Z,6.85
2022-09-25T23:39:21.917Z,6.35
2022-09-25T23:41:50.363Z,6.38
2022-09-25T23:44:18.784Z,6.43
2022-09-25T23:46:47.146Z,5.90
2022-09-25T23:49:16.468Z,6.95
2022-09-25T23:51:46.373Z,6.63
2022-09-25T23:54:15.363Z,5.68
2022-09-25T23:56:45.350Z,6.30
2022-09-25T23:59:15.082Z,7.20
